sensor_id;sensor_type;location;lat;lon;timestamp;P1;durP1;ratioP1;P2;durP2;ratioP2
68653;SDS011;55636;51.108;13.622;2023-09-30T00:00:44;9.90;;;6.07;;
68653;SDS011;55636;51.108;13.622;2023-09-30T00:01:48;10.73;;;6.93;;
68653;SDS011;55636;51.108;13.622;2023-09-30T00:02:51;10.75;;;5.85;;
68653;SDS011;55636;51.108;13.622;2023-09-30T00:03:54;9.10;;;5.57;;
68653;SDS011;55636;51.108;13.622;2023-09-30T00:04:57;9.63;;;5.72;;
68653;SDS011;55636;51.108;13.622;2023-09-30T00:06:00;9.02;;;5.88;;
68653;SDS011;55636;51.108;13.622;2023-09-30T00:07:02;8.55;;;5.40;;
68653;SDS011;55636;51.108;13.622;2023-09-30T00:08:05;11.52;;;5.88;;
68653;SDS011;55636;51.108;13.622;2023-09-30T00:09:09;9.07;;;5.57;;
68653;SDS011;55636;51.108;13.622;2023-09-30T00:10:14;6.75;;;4.82;;
68653;SDS011;55636;51.108;13.622;2023-09-30T00:11:17;9.32;;;4.88;;
68653;SDS011;55636;51.108;13.622;2023-09-30T00:12:20;6.25;;;4.20;;
68653;SDS011;55636;51.108;13.622;2023-09-30T00:13:23;6.15;;;3.88;;
68653;SDS011;55636;51.108;13.622;2023-09-30T00:14:26;7.28;;;4.10;;
68653;SDS011;55636;51.108;13.622;2023-09-30T00:15:28;5.93;;;3.67;;
68653;SDS011;55636;51.108;13.622;2023-09-30T00:16:31;6.63;;;3.10;;
68653;SDS011;55636;51.108;13.622;2023-09-30T00:17:34;4.63;;;2.92;;
68653;SDS011;55636;51.108;13.622;2023-09-30T00:18:36;3.17;;;2.40;;
68653;SDS011;55636;51.108;13.622;2023-09-30T00:19:39;5.07;;;2.50;;
68653;SDS011;55636;51.108;13.622;2023-09-30T00:20:41;4.63;;;2.60;;
68653;SDS011;55636;51.108;13.622;2023-09-30T00:21:44;2.78;;;2.20;;
68653;SDS011;55636;51.108;13.622;2023-09-30T00:22:47;2.60;;;2.08;;
68653;SDS011;55636;51.108;13.622;2023-09-30T00:23:50;3.25;;;2.22;;
68653;SDS011;55636;51.108;13.622;2023-09-30T00:24:52;2.95;;;2.08;;
68653;SDS011;55636;51.108;13.622;2023-09-30T00:25:55;3.20;;;2.10;;
68653;SDS011;55636;51.108;13.622;2023-09-30T00:26:58;2.53;;;1.95;;
68653;SDS011;55636;51.108;13.622;2023-09-30T00:28:00;2.92;;;2.00;;
68653;SDS011;55636;51.108;13.622;2023-09-30T00:29:03;2.47;;;1.58;;
68653;SDS011;55636;51.108;13.622;2023-09-30T00:30:08;2.50;;;2.10;;
68653;SDS011;55636;51.108;13.622;2023-09-30T00:31:11;2.42;;;1.83;;
68653;SDS011;55636;51.108;13.622;2023-09-30T00:32:13;3.75;;;2.10;;
68653;SDS011;55636;51.108;13.622;2023-09-30T00:33:16;2.20;;;1.90;;
68653;SDS011;55636;51.108;13.622;2023-09-30T00:34:18;2.75;;;1.90;;
68653;SDS011;55636;51.108;13.622;2023-09-30T00:35:20;2.65;;;1.90;;
68653;SDS011;55636;51.108;13.622;2023-09-30T00:36:23;2.72;;;2.00;;
68653;SDS011;55636;51.108;13.622;2023-09-30T00:37:26;3.67;;;1.90;;
68653;SDS011;55636;51.108;13.622;2023-09-30T00:38:29;2.63;;;2.10;;
68653;SDS011;55636;51.108;13.622;2023-09-30T00:39:32;2.45;;;1.83;;
68653;SDS011;55636;51.108;13.622;2023-09-30T00:40:35;2.83;;;1.80;;
68653;SDS011;55636;51.108;13.622;2023-09-30T00:41:39;2.75;;;1.92;;
68653;SDS011;55636;51.108;13.622;2023-09-30T00:42:42;2.40;;;2.00;;
68653;SDS011;55636;51.108;13.622;2023-09-30T00:43:48;2.58;;;2.00;;
68653;SDS011;55636;51.108;13.622;2023-09-30T00:44:51;2.50;;;1.90;;
68653;SDS011;55636;51.108;13.622;2023-09-30T00:46:00;3.40;;;1.73;;
68653;SDS011;55636;51.108;13.622;2023-09-30T00:47:08;1.95;;;1.60;;
68653;SDS011;55636;51.108;13.622;2023-09-30T00:48:11;4.32;;;1.98;;
68653;SDS011;55636;51.108;13.622;2023-09-30T00:49:14;3.45;;;1.73;;
68653;SDS011;55636;51.108;13.622;2023-09-30T00:50:16;4.00;;;1.70;;
68653;SDS011;55636;51.108;13.622;2023-09-30T00:51:22;2.97;;;1.70;;
68653;SDS011;55636;51.108;13.622;2023-09-30T00:52:25;5.85;;;1.77;;
68653;SDS011;55636;51.108;13.622;2023-09-30T00:53:29;1.98;;;1.58;;
68653;SDS011;55636;51.108;13.622;2023-09-30T00:54:32;2.03;;;1.40;;
68653;SDS011;55636;51.108;13.622;2023-09-30T00:55:35;1.38;;;1.27;;
68653;SDS011;55636;51.108;13.622;2023-09-30T00:56:42;1.70;;;1.30;;
68653;SDS011;55636;51.108;13.622;2023-09-30T00:57:47;1.20;;;1.02;;
68653;SDS011;55636;51.108;13.622;2023-09-30T00:58:50;1.65;;;1.20;;
68653;SDS011;55636;51.108;13.622;2023-09-30T00:59:53;4.68;;;1.20;;
68653;SDS011;55636;51.108;13.622;2023-09-30T01:00:56;1.90;;;1.33;;
68653;SDS011;55636;51.108;13.622;2023-09-30T01:02:00;1.80;;;1.00;;
68653;SDS011;55636;51.108;13.622;2023-09-30T01:03:04;1.15;;;1.05;;
68653;SDS011;55636;51.108;13.622;2023-09-30T01:04:07;1.83;;;1.10;;
68653;SDS011;55636;51.108;13.622;2023-09-30T01:05:12;1.30;;;0.90;;
68653;SDS011;55636;51.108;13.622;2023-09-30T01:06:15;2.67;;;1.10;;
68653;SDS011;55636;51.108;13.622;2023-09-30T01:07:17;5.60;;;1.20;;
68653;SDS011;55636;51.108;13.622;2023-09-30T01:08:20;2.20;;;1.40;;
68653;SDS011;55636;51.108;13.622;2023-09-30T01:09:24;1.67;;;1.23;;
68653;SDS011;55636;51.108;13.622;2023-09-30T01:10:27;1.70;;;1.33;;
68653;SDS011;55636;51.108;13.622;2023-09-30T01:11:30;3.03;;;1.27;;
68653;SDS011;55636;51.108;13.622;2023-09-30T01:12:32;1.67;;;1.20;;
68653;SDS011;55636;51.108;13.622;2023-09-30T01:13:35;1.73;;;1.15;;
68653;SDS011;55636;51.108;13.622;2023-09-30T01:14:38;3.15;;;1.60;;
68653;SDS011;55636;51.108;13.622;2023-09-30T01:15:42;1.42;;;1.30;;
68653;SDS011;55636;51.108;13.622;2023-09-30T01:16:45;1.55;;;1.30;;
68653;SDS011;55636;51.108;13.622;2023-09-30T01:17:47;1.77;;;1.20;;
68653;SDS011;55636;51.108;13.622;2023-09-30T01:18:51;2.35;;;1.23;;
68653;SDS011;55636;51.108;13.622;2023-09-30T01:19:54;2.03;;;1.40;;
68653;SDS011;55636;51.108;13.622;2023-09-30T01:21:01;2.50;;;1.27;;
68653;SDS011;55636;51.108;13.622;2023-09-30T01:22:06;2.83;;;1.40;;
68653;SDS011;55636;51.108;13.622;2023-09-30T01:23:11;1.33;;;1.23;;
68653;SDS011;55636;51.108;13.622;2023-09-30T01:24:14;1.88;;;1.40;;
68653;SDS011;55636;51.108;13.622;2023-09-30T01:25:17;2.33;;;1.50;;
68653;SDS011;55636;51.108;13.622;2023-09-30T01:26:19;1.20;;;1.10;;
68653;SDS011;55636;51.108;13.622;2023-09-30T01:27:22;2.50;;;1.40;;
68653;SDS011;55636;51.108;13.622;2023-09-30T01:28:25;1.58;;;1.33;;
68653;SDS011;55636;51.108;13.622;2023-09-30T01:29:28;1.40;;;1.30;;
68653;SDS011;55636;51.108;13.622;2023-09-30T01:30:31;2.65;;;1.50;;
68653;SDS011;55636;51.108;13.622;2023-09-30T01:31:35;2.30;;;1.38;;
68653;SDS011;55636;51.108;13.622;2023-09-30T01:32:38;1.42;;;1.30;;
68653;SDS011;55636;51.108;13.622;2023-09-30T01:33:41;2.17;;;1.40;;
68653;SDS011;55636;51.108;13.622;2023-09-30T01:34:43;1.30;;;1.20;;
68653;SDS011;55636;51.108;13.622;2023-09-30T01:35:46;1.55;;;1.30;;
68653;SDS011;55636;51.108;13.622;2023-09-30T01:36:48;2.17;;;1.42;;
68653;SDS011;55636;51.108;13.622;2023-09-30T01:37:51;1.38;;;1.27;;
68653;SDS011;55636;51.108;13.622;2023-09-30T01:38:53;2.00;;;1.38;;
68653;SDS011;55636;51.108;13.622;2023-09-30T01:39:56;2.70;;;1.50;;
68653;SDS011;55636;51.108;13.622;2023-09-30T01:40:58;2.22;;;1.42;;
68653;SDS011;55636;51.108;13.622;2023-09-30T01:42:02;2.25;;;1.45;;
68653;SDS011;55636;51.108;13.622;2023-09-30T01:43:07;3.15;;;1.60;;
68653;SDS011;55636;51.108;13.622;2023-09-30T01:44:10;1.70;;;1.38;;
68653;SDS011;55636;51.108;13.622;2023-09-30T01:45:12;2.25;;;1.40;;
68653;SDS011;55636;51.108;13.622;2023-09-30T01:46:15;1.40;;;1.30;;
68653;SDS011;55636;51.108;13.622;2023-09-30T01:47:18;1.30;;;1.20;;
68653;SDS011;55636;51.108;13.622;2023-09-30T01:48:21;1.70;;;1.30;;
68653;SDS011;55636;51.108;13.622;2023-09-30T01:49:23;2.25;;;1.40;;
68653;SDS011;55636;51.108;13.622;2023-09-30T01:50:26;3.17;;;1.77;;
68653;SDS011;55636;51.108;13.622;2023-09-30T01:51:29;2.60;;;1.40;;
68653;SDS011;55636;51.108;13.622;2023-09-30T01:52:32;2.97;;;1.60;;
68653;SDS011;55636;51.108;13.622;2023-09-30T01:53:35;2.60;;;1.40;;
68653;SDS011;55636;51.108;13.622;2023-09-30T01:54:38;2.03;;;1.58;;
68653;SDS011;55636;51.108;13.622;2023-09-30T01:55:40;2.92;;;1.60;;
68653;SDS011;55636;51.108;13.622;2023-09-30T01:56:43;3.70;;;1.90;;
68653;SDS011;55636;51.108;13.622;2023-09-30T01:57:45;2.47;;;1.50;;
68653;SDS011;55636;51.108;13.622;2023-09-30T01:58:47;2.88;;;1.50;;
68653;SDS011;55636;51.108;13.622;2023-09-30T01:59:50;2.03;;;1.30;;
68653;SDS011;55636;51.108;13.622;2023-09-30T02:00:53;1.80;;;1.42;;
68653;SDS011;55636;51.108;13.622;2023-09-30T02:02:04;2.97;;;1.50;;
68653;SDS011;55636;51.108;13.622;2023-09-30T02:03:06;1.98;;;1.48;;
68653;SDS011;55636;51.108;13.622;2023-09-30T02:04:09;2.03;;;1.40;;
68653;SDS011;55636;51.108;13.622;2023-09-30T02:05:12;2.15;;;1.65;;
68653;SDS011;55636;51.108;13.622;2023-09-30T02:06:15;2.22;;;1.50;;
68653;SDS011;55636;51.108;13.622;2023-09-30T02:07:19;3.03;;;1.67;;
68653;SDS011;55636;51.108;13.622;2023-09-30T02:08:21;3.72;;;1.80;;
68653;SDS011;55636;51.108;13.622;2023-09-30T02:09:24;3.97;;;1.75;;
68653;SDS011;55636;51.108;13.622;2023-09-30T02:10:27;3.80;;;1.80;;
68653;SDS011;55636;51.108;13.622;2023-09-30T02:11:30;2.38;;;1.60;;
68653;SDS011;55636;51.108;13.622;2023-09-30T02:12:33;2.88;;;1.85;;
68653;SDS011;55636;51.108;13.622;2023-09-30T02:13:35;3.70;;;1.75;;
68653;SDS011;55636;51.108;13.622;2023-09-30T02:14:38;1.77;;;1.50;;
68653;SDS011;55636;51.108;13.622;2023-09-30T02:15:45;2.92;;;1.95;;
68653;SDS011;55636;51.108;13.622;2023-09-30T02:16:48;2.63;;;1.60;;
68653;SDS011;55636;51.108;13.622;2023-09-30T02:17:50;3.38;;;1.80;;
68653;SDS011;55636;51.108;13.622;2023-09-30T02:18:52;2.58;;;1.80;;
68653;SDS011;55636;51.108;13.622;2023-09-30T02:19:55;2.42;;;1.80;;
68653;SDS011;55636;51.108;13.622;2023-09-30T02:20:58;4.32;;;1.83;;
68653;SDS011;55636;51.108;13.622;2023-09-30T02:22:01;3.25;;;1.80;;
68653;SDS011;55636;51.108;13.622;2023-09-30T02:23:04;2.15;;;1.80;;
68653;SDS011;55636;51.108;13.622;2023-09-30T02:24:08;2.67;;;1.55;;
68653;SDS011;55636;51.108;13.622;2023-09-30T02:25:11;4.28;;;1.80;;
68653;SDS011;55636;51.108;13.622;2023-09-30T02:26:15;4.00;;;1.98;;
68653;SDS011;55636;51.108;13.622;2023-09-30T02:27:17;3.75;;;1.80;;
68653;SDS011;55636;51.108;13.622;2023-09-30T02:28:20;3.90;;;1.95;;
68653;SDS011;55636;51.108;13.622;2023-09-30T02:29:22;6.18;;;1.90;;
68653;SDS011;55636;51.108;13.622;2023-09-30T02:30:25;3.40;;;1.73;;
68653;SDS011;55636;51.108;13.622;2023-09-30T02:31:27;4.03;;;2.00;;
68653;SDS011;55636;51.108;13.622;2023-09-30T02:32:30;4.50;;;1.85;;
68653;SDS011;55636;51.108;13.622;2023-09-30T02:33:33;4.55;;;2.08;;
68653;SDS011;55636;51.108;13.622;2023-09-30T02:34:38;3.60;;;2.05;;
68653;SDS011;55636;51.108;13.622;2023-09-30T02:35:45;3.35;;;1.75;;
68653;SDS011;55636;51.108;13.622;2023-09-30T02:36:47;4.88;;;1.88;;
68653;SDS011;55636;51.108;13.622;2023-09-30T02:37:50;2.70;;;1.88;;
68653;SDS011;55636;51.108;13.622;2023-09-30T02:38:54;4.30;;;1.80;;
68653;SDS011;55636;51.108;13.622;2023-09-30T02:39:56;3.28;;;1.80;;
68653;SDS011;55636;51.108;13.622;2023-09-30T02:40:59;2.90;;;1.83;;
68653;SDS011;55636;51.108;13.622;2023-09-30T02:42:02;5.25;;;2.15;;
68653;SDS011;55636;51.108;13.622;2023-09-30T02:43:07;4.72;;;1.75;;
68653;SDS011;55636;51.108;13.622;2023-09-30T02:44:09;3.22;;;2.10;;
68653;SDS011;55636;51.108;13.622;2023-09-30T02:45:12;4.75;;;2.00;;
68653;SDS011;55636;51.108;13.622;2023-09-30T02:46:15;3.42;;;1.92;;
68653;SDS011;55636;51.108;13.622;2023-09-30T02:47:18;3.85;;;2.20;;
68653;SDS011;55636;51.108;13.622;2023-09-30T02:48:20;5.15;;;2.20;;
68653;SDS011;55636;51.108;13.622;2023-09-30T02:49:23;4.82;;;2.35;;
68653;SDS011;55636;51.108;13.622;2023-09-30T02:50:26;5.40;;;2.38;;
68653;SDS011;55636;51.108;13.622;2023-09-30T02:51:28;6.28;;;2.20;;
68653;SDS011;55636;51.108;13.622;2023-09-30T02:52:31;4.45;;;2.20;;
68653;SDS011;55636;51.108;13.622;2023-09-30T02:53:34;5.63;;;2.53;;
68653;SDS011;55636;51.108;13.622;2023-09-30T02:54:36;3.13;;;2.08;;
68653;SDS011;55636;51.108;13.622;2023-09-30T02:55:39;4.00;;;2.38;;
68653;SDS011;55636;51.108;13.622;2023-09-30T02:56:44;6.32;;;2.75;;
68653;SDS011;55636;51.108;13.622;2023-09-30T02:57:48;5.72;;;2.45;;
68653;SDS011;55636;51.108;13.622;2023-09-30T02:58:51;4.05;;;2.30;;
68653;SDS011;55636;51.108;13.622;2023-09-30T02:59:54;5.65;;;2.53;;
68653;SDS011;55636;51.108;13.622;2023-09-30T03:00:58;3.80;;;2.40;;
68653;SDS011;55636;51.108;13.622;2023-09-30T03:02:02;4.97;;;2.50;;
68653;SDS011;55636;51.108;13.622;2023-09-30T03:03:14;5.47;;;2.53;;
68653;SDS011;55636;51.108;13.622;2023-09-30T03:04:17;7.05;;;2.67;;
68653;SDS011;55636;51.108;13.622;2023-09-30T03:05:21;5.07;;;2.22;;
68653;SDS011;55636;51.108;13.622;2023-09-30T03:06:25;3.25;;;2.13;;
68653;SDS011;55636;51.108;13.622;2023-09-30T03:07:28;3.90;;;2.33;;
68653;SDS011;55636;51.108;13.622;2023-09-30T03:08:32;7.00;;;2.00;;
68653;SDS011;55636;51.108;13.622;2023-09-30T03:09:34;6.10;;;2.53;;
68653;SDS011;55636;51.108;13.622;2023-09-30T03:10:38;4.50;;;2.38;;
68653;SDS011;55636;51.108;13.622;2023-09-30T03:11:42;5.75;;;2.50;;
68653;SDS011;55636;51.108;13.622;2023-09-30T03:12:46;5.40;;;2.53;;
68653;SDS011;55636;51.108;13.622;2023-09-30T03:13:50;7.15;;;2.53;;
68653;SDS011;55636;51.108;13.622;2023-09-30T03:14:52;5.80;;;2.53;;
68653;SDS011;55636;51.108;13.622;2023-09-30T03:15:56;6.72;;;2.75;;
68653;SDS011;55636;51.108;13.622;2023-09-30T03:16:59;4.25;;;2.17;;
68653;SDS011;55636;51.108;13.622;2023-09-30T03:18:01;4.78;;;2.97;;
68653;SDS011;55636;51.108;13.622;2023-09-30T03:19:05;4.07;;;2.42;;
68653;SDS011;55636;51.108;13.622;2023-09-30T03:20:10;3.97;;;2.25;;
68653;SDS011;55636;51.108;13.622;2023-09-30T03:21:20;5.70;;;2.22;;
68653;SDS011;55636;51.108;13.622;2023-09-30T03:22:24;5.72;;;2.15;;
68653;SDS011;55636;51.108;13.622;2023-09-30T03:23:29;5.13;;;2.50;;
68653;SDS011;55636;51.108;13.622;2023-09-30T03:24:33;5.97;;;2.45;;
68653;SDS011;55636;51.108;13.622;2023-09-30T03:25:35;5.85;;;2.83;;
68653;SDS011;55636;51.108;13.622;2023-09-30T03:26:37;4.70;;;2.70;;
68653;SDS011;55636;51.108;13.622;2023-09-30T03:27:46;5.35;;;2.30;;
68653;SDS011;55636;51.108;13.622;2023-09-30T03:28:49;6.40;;;2.30;;
68653;SDS011;55636;51.108;13.622;2023-09-30T03:29:52;5.25;;;2.53;;
68653;SDS011;55636;51.108;13.622;2023-09-30T03:30:55;5.22;;;2.22;;
68653;SDS011;55636;51.108;13.622;2023-09-30T03:31:58;7.25;;;2.63;;
68653;SDS011;55636;51.108;13.622;2023-09-30T03:33:01;5.80;;;2.67;;
68653;SDS011;55636;51.108;13.622;2023-09-30T03:34:07;5.05;;;2.47;;
68653;SDS011;55636;51.108;13.622;2023-09-30T03:35:10;4.68;;;2.50;;
68653;SDS011;55636;51.108;13.622;2023-09-30T03:36:17;6.20;;;2.60;;
68653;SDS011;55636;51.108;13.622;2023-09-30T03:37:20;6.85;;;2.75;;
68653;SDS011;55636;51.108;13.622;2023-09-30T03:38:23;5.18;;;2.58;;
68653;SDS011;55636;51.108;13.622;2023-09-30T03:39:26;5.68;;;2.63;;
68653;SDS011;55636;51.108;13.622;2023-09-30T03:40:30;5.45;;;2.30;;
68653;SDS011;55636;51.108;13.622;2023-09-30T03:41:35;5.50;;;2.20;;
68653;SDS011;55636;51.108;13.622;2023-09-30T03:42:39;4.55;;;2.67;;
68653;SDS011;55636;51.108;13.622;2023-09-30T03:43:45;5.63;;;2.60;;
68653;SDS011;55636;51.108;13.622;2023-09-30T03:44:49;5.22;;;2.50;;
68653;SDS011;55636;51.108;13.622;2023-09-30T03:45:52;5.25;;;2.53;;
68653;SDS011;55636;51.108;13.622;2023-09-30T03:46:58;4.68;;;2.20;;
68653;SDS011;55636;51.108;13.622;2023-09-30T03:48:01;4.85;;;2.60;;
68653;SDS011;55636;51.108;13.622;2023-09-30T03:49:04;5.35;;;2.60;;
68653;SDS011;55636;51.108;13.622;2023-09-30T03:50:07;4.68;;;2.40;;
68653;SDS011;55636;51.108;13.622;2023-09-30T03:51:17;3.95;;;2.38;;
68653;SDS011;55636;51.108;13.622;2023-09-30T03:52:20;5.82;;;2.50;;
68653;SDS011;55636;51.108;13.622;2023-09-30T03:53:25;5.07;;;2.35;;
68653;SDS011;55636;51.108;13.622;2023-09-30T03:54:28;5.95;;;2.55;;
68653;SDS011;55636;51.108;13.622;2023-09-30T03:55:31;5.88;;;2.58;;
68653;SDS011;55636;51.108;13.622;2023-09-30T03:56:34;5.68;;;2.53;;
68653;SDS011;55636;51.108;13.622;2023-09-30T03:57:36;4.53;;;2.50;;
68653;SDS011;55636;51.108;13.622;2023-09-30T03:58:39;5.18;;;2.72;;
68653;SDS011;55636;51.108;13.622;2023-09-30T03:59:43;7.30;;;2.90;;
68653;SDS011;55636;51.108;13.622;2023-09-30T04:00:48;5.15;;;2.88;;
68653;SDS011;55636;51.108;13.622;2023-09-30T04:01:51;6.90;;;2.80;;
68653;SDS011;55636;51.108;13.622;2023-09-30T04:02:55;5.55;;;2.70;;
68653;SDS011;55636;51.108;13.622;2023-09-30T04:04:01;6.30;;;2.80;;
68653;SDS011;55636;51.108;13.622;2023-09-30T04:05:03;5.57;;;3.13;;
68653;SDS011;55636;51.108;13.622;2023-09-30T04:06:07;7.65;;;3.17;;
68653;SDS011;55636;51.108;13.622;2023-09-30T04:07:10;7.63;;;3.17;;
68653;SDS011;55636;51.108;13.622;2023-09-30T04:08:12;7.28;;;3.10;;
68653;SDS011;55636;51.108;13.622;2023-09-30T04:09:17;6.38;;;3.00;;
68653;SDS011;55636;51.108;13.622;2023-09-30T04:10:20;6.78;;;2.70;;
68653;SDS011;55636;51.108;13.622;2023-09-30T04:11:24;8.27;;;3.00;;
68653;SDS011;55636;51.108;13.622;2023-09-30T04:12:27;7.05;;;2.72;;
68653;SDS011;55636;51.108;13.622;2023-09-30T04:13:31;8.07;;;2.75;;
68653;SDS011;55636;51.108;13.622;2023-09-30T04:14:35;6.40;;;3.08;;
68653;SDS011;55636;51.108;13.622;2023-09-30T04:15:37;6.07;;;2.92;;
68653;SDS011;55636;51.108;13.622;2023-09-30T04:16:40;7.07;;;2.85;;
68653;SDS011;55636;51.108;13.622;2023-09-30T04:17:44;7.10;;;2.85;;
68653;SDS011;55636;51.108;13.622;2023-09-30T04:18:47;8.30;;;3.00;;
68653;SDS011;55636;51.108;13.622;2023-09-30T04:19:52;7.43;;;2.88;;
68653;SDS011;55636;51.108;13.622;2023-09-30T04:20:55;5.82;;;2.80;;
68653;SDS011;55636;51.108;13.622;2023-09-30T04:21:58;7.32;;;3.00;;
68653;SDS011;55636;51.108;13.622;2023-09-30T04:23:00;5.88;;;2.92;;
68653;SDS011;55636;51.108;13.622;2023-09-30T04:24:04;7.57;;;3.25;;
68653;SDS011;55636;51.108;13.622;2023-09-30T04:25:09;6.38;;;2.90;;
68653;SDS011;55636;51.108;13.622;2023-09-30T04:26:12;7.90;;;2.90;;
68653;SDS011;55636;51.108;13.622;2023-09-30T04:27:17;5.05;;;2.78;;
68653;SDS011;55636;51.108;13.622;2023-09-30T04:28:19;6.10;;;2.53;;
68653;SDS011;55636;51.108;13.622;2023-09-30T04:29:22;7.57;;;2.65;;
68653;SDS011;55636;51.108;13.622;2023-09-30T04:30:25;5.18;;;2.83;;
68653;SDS011;55636;51.108;13.622;2023-09-30T04:31:29;6.85;;;3.00;;
68653;SDS011;55636;51.108;13.622;2023-09-30T04:32:32;7.80;;;3.00;;
68653;SDS011;55636;51.108;13.622;2023-09-30T04:33:35;8.25;;;3.20;;
68653;SDS011;55636;51.108;13.622;2023-09-30T04:34:38;8.35;;;3.13;;
68653;SDS011;55636;51.108;13.622;2023-09-30T04:35:41;8.05;;;2.92;;
68653;SDS011;55636;51.108;13.622;2023-09-30T04:36:43;5.53;;;3.03;;
68653;SDS011;55636;51.108;13.622;2023-09-30T04:37:47;12.48;;;3.42;;
68653;SDS011;55636;51.108;13.622;2023-09-30T04:38:49;8.70;;;3.33;;
68653;SDS011;55636;51.108;13.622;2023-09-30T04:39:52;5.82;;;2.88;;
68653;SDS011;55636;51.108;13.622;2023-09-30T04:40:55;7.07;;;3.00;;
68653;SDS011;55636;51.108;13.622;2023-09-30T04:41:58;7.53;;;2.83;;
68653;SDS011;55636;51.108;13.622;2023-09-30T04:43:03;6.07;;;2.92;;
68653;SDS011;55636;51.108;13.622;2023-09-30T04:44:05;9.30;;;3.40;;
68653;SDS011;55636;51.108;13.622;2023-09-30T04:45:09;7.65;;;2.85;;
68653;SDS011;55636;51.108;13.622;2023-09-30T04:46:12;4.97;;;2.80;;
68653;SDS011;55636;51.108;13.622;2023-09-30T04:47:15;7.35;;;3.22;;
68653;SDS011;55636;51.108;13.622;2023-09-30T04:48:17;7.50;;;2.85;;
68653;SDS011;55636;51.108;13.622;2023-09-30T04:49:20;7.72;;;2.88;;
68653;SDS011;55636;51.108;13.622;2023-09-30T04:50:23;5.63;;;3.15;;
68653;SDS011;55636;51.108;13.622;2023-09-30T04:51:26;6.75;;;2.80;;
68653;SDS011;55636;51.108;13.622;2023-09-30T04:52:28;4.95;;;2.60;;
68653;SDS011;55636;51.108;13.622;2023-09-30T04:53:31;7.43;;;3.15;;
68653;SDS011;55636;51.108;13.622;2023-09-30T04:54:36;6.60;;;3.05;;
68653;SDS011;55636;51.108;13.622;2023-09-30T04:55:38;7.55;;;3.35;;
68653;SDS011;55636;51.108;13.622;2023-09-30T04:56:41;6.78;;;3.22;;
68653;SDS011;55636;51.108;13.622;2023-09-30T04:57:44;7.97;;;3.17;;
68653;SDS011;55636;51.108;13.622;2023-09-30T04:58:47;8.32;;;3.08;;
68653;SDS011;55636;51.108;13.622;2023-09-30T04:59:50;8.25;;;2.78;;
68653;SDS011;55636;51.108;13.622;2023-09-30T05:00:52;7.45;;;3.30;;
68653;SDS011;55636;51.108;13.622;2023-09-30T05:01:55;8.80;;;3.30;;
68653;SDS011;55636;51.108;13.622;2023-09-30T05:02:58;9.40;;;3.08;;
68653;SDS011;55636;51.108;13.622;2023-09-30T05:04:01;7.00;;;3.28;;
68653;SDS011;55636;51.108;13.622;2023-09-30T05:05:05;8.48;;;3.17;;
68653;SDS011;55636;51.108;13.622;2023-09-30T05:06:09;7.28;;;3.22;;
68653;SDS011;55636;51.108;13.622;2023-09-30T05:07:11;5.95;;;3.38;;
68653;SDS011;55636;51.108;13.622;2023-09-30T05:08:15;7.93;;;3.30;;
68653;SDS011;55636;51.108;13.622;2023-09-30T05:09:18;6.60;;;3.05;;
68653;SDS011;55636;51.108;13.622;2023-09-30T05:10:20;7.40;;;3.05;;
68653;SDS011;55636;51.108;13.622;2023-09-30T05:11:23;7.03;;;3.20;;
68653;SDS011;55636;51.108;13.622;2023-09-30T05:12:26;6.20;;;3.15;;
68653;SDS011;55636;51.108;13.622;2023-09-30T05:13:29;8.48;;;3.33;;
68653;SDS011;55636;51.108;13.622;2023-09-30T05:14:32;5.68;;;3.10;;
68653;SDS011;55636;51.108;13.622;2023-09-30T05:15:35;9.35;;;3.40;;
68653;SDS011;55636;51.108;13.622;2023-09-30T05:16:37;7.55;;;3.22;;
68653;SDS011;55636;51.108;13.622;2023-09-30T05:17:40;8.82;;;3.47;;
68653;SDS011;55636;51.108;13.622;2023-09-30T05:18:42;8.80;;;3.67;;
68653;SDS011;55636;51.108;13.622;2023-09-30T05:19:45;7.85;;;3.63;;
68653;SDS011;55636;51.108;13.622;2023-09-30T05:20:48;7.30;;;3.40;;
68653;SDS011;55636;51.108;13.622;2023-09-30T05:21:51;7.35;;;3.50;;
68653;SDS011;55636;51.108;13.622;2023-09-30T05:22:54;8.10;;;3.33;;
68653;SDS011;55636;51.108;13.622;2023-09-30T05:23:57;6.28;;;3.40;;
68653;SDS011;55636;51.108;13.622;2023-09-30T05:25:00;6.13;;;3.20;;
68653;SDS011;55636;51.108;13.622;2023-09-30T05:26:02;6.70;;;3.00;;
68653;SDS011;55636;51.108;13.622;2023-09-30T05:27:05;9.10;;;3.80;;
68653;SDS011;55636;51.108;13.622;2023-09-30T05:28:08;6.93;;;3.05;;
68653;SDS011;55636;51.108;13.622;2023-09-30T05:29:11;6.97;;;3.35;;
68653;SDS011;55636;51.108;13.622;2023-09-30T05:30:13;8.25;;;3.10;;
68653;SDS011;55636;51.108;13.622;2023-09-30T05:31:18;7.65;;;3.15;;
68653;SDS011;55636;51.108;13.622;2023-09-30T05:32:21;6.32;;;3.08;;
68653;SDS011;55636;51.108;13.622;2023-09-30T05:33:24;5.70;;;2.70;;
68653;SDS011;55636;51.108;13.622;2023-09-30T05:34:27;5.85;;;3.03;;
68653;SDS011;55636;51.108;13.622;2023-09-30T05:35:30;7.57;;;2.83;;
68653;SDS011;55636;51.108;13.622;2023-09-30T05:36:34;6.15;;;2.88;;
68653;SDS011;55636;51.108;13.622;2023-09-30T05:37:37;5.00;;;2.70;;
68653;SDS011;55636;51.108;13.622;2023-09-30T05:38:43;5.82;;;3.00;;
68653;SDS011;55636;51.108;13.622;2023-09-30T05:39:45;5.90;;;3.03;;
68653;SDS011;55636;51.108;13.622;2023-09-30T05:40:48;7.65;;;3.30;;
68653;SDS011;55636;51.108;13.622;2023-09-30T05:41:51;7.38;;;3.13;;
68653;SDS011;55636;51.108;13.622;2023-09-30T05:42:54;6.20;;;2.85;;
68653;SDS011;55636;51.108;13.622;2023-09-30T05:44:01;6.93;;;3.13;;
68653;SDS011;55636;51.108;13.622;2023-09-30T05:45:04;5.53;;;2.90;;
68653;SDS011;55636;51.108;13.622;2023-09-30T05:46:08;6.40;;;3.20;;
68653;SDS011;55636;51.108;13.622;2023-09-30T05:47:11;6.40;;;3.03;;
68653;SDS011;55636;51.108;13.622;2023-09-30T05:48:15;7.07;;;3.13;;
68653;SDS011;55636;51.108;13.622;2023-09-30T05:49:18;7.45;;;3.17;;
68653;SDS011;55636;51.108;13.622;2023-09-30T05:50:21;6.20;;;3.10;;
68653;SDS011;55636;51.108;13.622;2023-09-30T05:51:29;8.38;;;3.35;;
68653;SDS011;55636;51.108;13.622;2023-09-30T05:52:32;5.95;;;3.20;;
68653;SDS011;55636;51.108;13.622;2023-09-30T05:53:35;6.68;;;2.90;;
68653;SDS011;55636;51.108;13.622;2023-09-30T05:54:38;5.07;;;3.05;;
68653;SDS011;55636;51.108;13.622;2023-09-30T05:55:41;5.97;;;3.20;;
68653;SDS011;55636;51.108;13.622;2023-09-30T05:56:45;5.32;;;2.83;;
68653;SDS011;55636;51.108;13.622;2023-09-30T05:57:49;6.50;;;3.00;;
68653;SDS011;55636;51.108;13.622;2023-09-30T05:58:52;7.03;;;3.22;;
68653;SDS011;55636;51.108;13.622;2023-09-30T05:59:54;7.90;;;3.20;;
68653;SDS011;55636;51.108;13.622;2023-09-30T06:00:57;7.10;;;3.08;;
68653;SDS011;55636;51.108;13.622;2023-09-30T06:02:00;6.63;;;3.17;;
68653;SDS011;55636;51.108;13.622;2023-09-30T06:03:03;5.05;;;2.92;;
68653;SDS011;55636;51.108;13.622;2023-09-30T06:04:09;8.35;;;3.50;;
68653;SDS011;55636;51.108;13.622;2023-09-30T06:05:13;6.05;;;3.08;;
68653;SDS011;55636;51.108;13.622;2023-09-30T06:06:17;8.25;;;3.20;;
68653;SDS011;55636;51.108;13.622;2023-09-30T06:07:26;6.97;;;3.17;;
68653;SDS011;55636;51.108;13.622;2023-09-30T06:08:29;6.43;;;3.22;;
68653;SDS011;55636;51.108;13.622;2023-09-30T06:09:32;6.55;;;2.85;;
68653;SDS011;55636;51.108;13.622;2023-09-30T06:10:34;6.68;;;3.00;;
68653;SDS011;55636;51.108;13.622;2023-09-30T06:11:39;6.88;;;3.00;;
68653;SDS011;55636;51.108;13.622;2023-09-30T06:12:44;6.03;;;2.92;;
68653;SDS011;55636;51.108;13.622;2023-09-30T06:13:48;6.07;;;2.72;;
68653;SDS011;55636;51.108;13.622;2023-09-30T06:14:51;7.15;;;3.25;;
68653;SDS011;55636;51.108;13.622;2023-09-30T06:15:55;5.80;;;2.95;;